AirNav   Air Wisconsin Up To $57,000 Bonus
 
 1600 users online  

TX6 Twisted JS Airport
Farmersville, Texas, USA

GOING TO FARMERSVILLE?


FAA INFORMATION EFFECTIVE 11 AUGUST 2022

Location

FAA Identifier: TX6
Lat/Long: 33-05-34.6000N 096-23-24.1000W
33-05.576667N 096-23.401667W
33.0929444,-96.3900278
(estimated)
Elevation: 597 ft. / 182 m (estimated)
From city: 4 miles SE of FARMERSVILLE, TX
Time zone: UTC -5 (UTC -6 during Standard Time)
Zip code: 75173

Airport Operations

Airport use: Open to the public
Activation date: 11/2016
Control tower: no
ARTCC: FORT WORTH CENTER
FSS: FORT WORTH FLIGHT SERVICE STATION
NOTAMs facility: FTW (NOTAM-D service available)
Attendance: UNATTND
Wind indicator: yes
Segmented circle: no

Airport Communications

CTAF: 122.9
WX AWOS-3PT at F46 (10 nm S): 121.25 (972-772-6699)
WX ASOS at TKI (11 nm NW): PHONE 972-548-8525
WX AWOS-3 at GVT (16 nm E): 133.425 (903-455-7703)

Nearby radio navigation aids

VOR radial/distance  VOR name  Freq  Var
BYPr190/27.8BONHAM VORTAC114.6006E
CVEr059/28.6COWBOY VOR/DME116.2006E
TTTr062/35.4MAVERICK VOR/DME113.1006E

 
NDB name  Hdg/Dist  Freq  Var  ID
MESQUITE019/18.424803EPQF .--. --.- ..-.

Airport Services

Runway Information

Runway 16/34

Dimensions: 1264 x 60 ft. / 385 x 18 m
Surface: turf, in fair condition
RUNWAY 16  RUNWAY 34
Latitude: 33-05.676667N33-05.476667N
Longitude: 096-23.436667W096-23.366667W
Elevation: 583.0 ft.597.0 ft.
Traffic pattern: leftleft
Obstructions: 4 ft. fence, 55 ft. left and right of centerline
ALSO 70 FT PLINE, 1200 FT DSTC, 0 FT B, 17:1.
4 ft. fence, 55 ft. left and right of centerline

Airport Ownership and Management from official FAA records

Ownership: Privately-owned
Owner: SUSAN JEANNETTE ELGIN
4329 COUNTY RD 597
FARMERSVILLE, TX 75442
Phone 214-707-5575
JEANNETTE_ELGIN@YAHOO.COM
Manager: JOE STANFIELD
4329 COUNTY RD 597
FARMERSVILLE, TX 75442
Phone 972-523-0017
STANFIELD_JOE@YAHOO.COM

Airport Operational Statistics

Aircraft operations: 40/year *
50% transient general aviation
50% local general aviation
* for 12-month period ending 31 December 2018

Additional Remarks

CATTLE NEAR MOVEMENT AREAS.
RWY 16/34 CLSD TO TGL AND STUDENT PIT.
TREES 75FT N APCH END RWY 16 50FT AGL.
RWY SOFT WHEN WET. CALL TO CONFIRM COND.
FOR CD CTC FORT WORTH ARTCC AT 817-858-7584.
AP CLSD TO TSNT ACFT EXC 3 HRS PPR.

Instrument Procedures

There are no published instrument procedures at TX6.

Some nearby airports with instrument procedures:

7F3 - Caddo Mills Municipal Airport (8 nm SE)
F46 - Ralph M Hall/Rockwall Municipal Airport (10 nm S)
KTKI - McKinney National Airport (11 nm NW)
KGVT - Majors Airport (16 nm E)
KHQZ - Mesquite Metro Airport (22 nm S)
 
Loc | Ops | Rwys | IFR | FBO | Links
Com | Nav | Svcs | Stats | Notes

City of Fort Worth
 
Aerial photo
No photo
 
Airport distance calculator
Flying to Twisted JS Airport? Find the distance to fly.

From to TX6

Sunrise and sunset
Times for 16-Aug-2022
 Local
(UTC-5)
 Zulu
(UTC)
Morning civil twilight06:2411:24
Sunrise06:5011:50
Sunset20:0901:09
Evening civil twilight20:3601:36

Current date and time
Zulu (UTC)  16-Aug-2022 13:38:53
Local (UTC-5)  16-Aug-2022 08:38:53
 
METAR
KF46 
10nm S 
161315Z AUTO 22007KT 10SM CLR 28/21 A2997 RMK AO2 T02770207
KTKI 
11nm NW 
161253Z 17004KT 10SM CLR 27/19 A2995 RMK AO2 SLP133 T02670194
KGVT 
16nm E 
161315Z AUTO 21007KT 10SM CLR 28/21 A2996 RMK AO2 TSNO T02790207
TAF
KDAL 
27nm SW 
161120Z 1612/1712 20007KT P6SM BKN250
KDFW 
34nm W 
161120Z 1612/1718 20007KT P6SM BKN250 FM171200 25007KT P6SM FEW180 FM171700 32010KT P6SM SCT070
NOTAMs
Click for the latest NOTAMs
NOTAMs are issued by the DoD/FAA and will open in a separate window not controlled by AirNav.

 

 
 

Would you like to see your business listed on this page?

 If your business provides an interesting product or service to pilots, flight crews, aircraft, or users of the Twisted JS Airport, you should consider listing it here.  To start the listing process, click on the button below
 
Add a business
 

Other Pages about Twisted JS Airport

Update a link
 
Copyright © AirNav, LLC. All rights reserved. Privacy Policy  Contact